Time;durP1;ratioP1;P1;durP2;ratioP2;P2;SDS_P1;SDS_P2;PMS_P1;PMS_P2;Temp;Humidity;BMP_temperature;BMP_pressure;BME280_temperature;BME280_humidity;BME280_pressure;Samples;Min_cycle;Max_cycle;Signal;HPM_P1;HPM_P2
2024/01/28 00:01:38;;;;;;;0.00;0.00;;;3.00;99.90;;;;;;5065474;28;20067;-55
2024/01/28 00:04:04;;;;;;;0.17;0.17;;;3.10;99.90;;;;;;5045184;28;20051;-56
2024/01/28 00:06:29;;;;;;;0.00;0.00;;;3.00;99.90;;;;;;5062846;28;20135;-55
2024/01/28 00:08:55;;;;;;;0.00;0.00;;;3.10;99.90;;;;;;5065062;28;20499;-55
2024/01/28 00:11:21;;;;;;;0.00;0.00;;;3.10;99.90;;;;;;5067876;28;20032;-55
2024/01/28 00:13:46;;;;;;;0.00;0.00;;;3.20;99.90;;;;;;5069876;28;20024;-54
2024/01/28 00:16:15;;;;;;;0.22;0.22;;;3.00;99.90;;;;;;5067549;28;20032;-55
2024/01/28 00:18:41;;;;;;;0.00;0.00;;;2.90;99.90;;;;;;5058957;28;20041;-55
2024/01/28 00:21:07;;;;;;;0.00;0.00;;;2.90;99.90;;;;;;5063920;28;20120;-54
2024/01/28 00:23:32;;;;;;;0.00;0.00;;;3.00;99.90;;;;;;5039998;28;20056;-56
2024/01/28 00:25:59;;;;;;;0.00;0.00;;;3.00;99.90;;;;;;5057762;28;20032;-55
2024/01/28 00:28:24;;;;;;;0.00;0.00;;;3.00;99.90;;;;;;5060051;28;20028;-55
2024/01/28 00:30:50;;;;;;;0.00;0.00;;;3.00;99.90;;;;;;5061323;28;20078;-55
2024/01/28 00:33:15;;;;;;;0.30;0.30;;;3.00;99.90;;;;;;5064420;28;20555;-56
2024/01/28 00:35:41;;;;;;;0.00;0.00;;;3.00;99.90;;;;;;5064676;28;20054;-56
2024/01/28 00:38:07;;;;;;;0.00;0.00;;;2.90;99.90;;;;;;5052649;28;20028;-54
2024/01/28 00:40:33;;;;;;;0.10;0.10;;;3.10;99.90;;;;;;5067242;28;20024;-55
2024/01/28 00:42:58;;;;;;;0.30;0.30;;;2.90;99.90;;;;;;5066392;28;20936;-55
2024/01/28 00:45:24;;;;;;;0.00;0.00;;;2.90;99.90;;;;;;5062264;28;20025;-54
2024/01/28 00:47:49;;;;;;;0.00;0.00;;;2.80;99.90;;;;;;5063609;28;20055;-56
2024/01/28 00:50:15;;;;;;;0.10;0.10;;;2.80;99.90;;;;;;5061141;28;20342;-56
2024/01/28 00:52:41;;;;;;;0.00;0.00;;;2.80;99.90;;;;;;5061004;28;20174;-55
2024/01/28 00:55:08;;;;;;;0.08;0.08;;;2.80;99.90;;;;;;5063845;28;20528;-54
2024/01/28 00:57:33;;;;;;;0.00;0.00;;;2.90;99.90;;;;;;5058231;28;20020;-55
2024/01/28 00:59:59;;;;;;;0.25;0.25;;;2.90;99.90;;;;;;5062380;28;20043;-55
2024/01/28 01:02:24;;;;;;;0.00;0.00;;;3.00;99.90;;;;;;5063871;28;20028;-56
2024/01/28 01:04:50;;;;;;;0.15;0.15;;;3.10;99.90;;;;;;5062297;28;20479;-54
2024/01/28 01:07:16;;;;;;;0.00;0.00;;;3.20;99.90;;;;;;5062364;28;20027;-54
2024/01/28 01:09:41;;;;;;;0.00;0.00;;;3.20;99.90;;;;;;5065675;28;20032;-53
2024/01/28 01:12:07;;;;;;;0.00;0.00;;;3.30;99.90;;;;;;5062679;28;20031;-54
2024/01/28 01:14:35;;;;;;;0.00;0.00;;;3.20;99.90;;;;;;5061295;28;20036;-54
2024/01/28 01:17:02;;;;;;;0.00;0.00;;;3.10;99.90;;;;;;5067625;28;20032;-55
2024/01/28 01:19:28;;;;;;;0.00;0.00;;;3.20;99.90;;;;;;5068147;28;20480;-54
2024/01/28 01:21:53;;;;;;;0.00;0.00;;;3.30;99.90;;;;;;5062557;28;20036;-53
2024/01/28 01:24:19;;;;;;;0.00;0.00;;;3.30;99.90;;;;;;5061546;28;20039;-56
2024/01/28 01:26:44;;;;;;;0.00;0.00;;;3.20;99.90;;;;;;5064227;28;20040;-55
2024/01/28 01:29:10;;;;;;;0.00;0.00;;;3.00;99.90;;;;;;5064571;28;20036;-54
2024/01/28 01:31:35;;;;;;;0.00;0.00;;;2.90;99.90;;;;;;5042895;28;20028;-55
2024/01/28 01:34:01;;;;;;;0.10;0.10;;;3.00;99.90;;;;;;5065543;28;20032;-55
2024/01/28 01:36:27;;;;;;;0.00;0.00;;;2.80;99.90;;;;;;5062275;28;20837;-54
2024/01/28 01:38:52;;;;;;;0.08;0.08;;;3.00;99.90;;;;;;5062591;28;20037;-54
2024/01/28 01:41:18;;;;;;;0.00;0.00;;;2.90;99.90;;;;;;5059964;28;20044;-55
2024/01/28 01:43:44;;;;;;;0.00;0.00;;;3.00;99.90;;;;;;5067356;28;20029;-55
2024/01/28 01:46:10;;;;;;;0.00;0.00;;;3.00;99.90;;;;;;5060297;28;20781;-56
2024/01/28 01:48:36;;;;;;;0.00;0.00;;;2.90;99.90;;;;;;5064436;28;20020;-54
2024/01/28 01:51:01;;;;;;;0.08;0.08;;;3.00;99.90;;;;;;5066550;28;20038;-53
2024/01/28 01:53:28;;;;;;;0.65;0.65;;;2.80;99.90;;;;;;5070805;28;20021;-54
2024/01/28 01:55:54;;;;;;;0.00;0.00;;;2.70;99.90;;;;;;5066334;28;20033;-53
2024/01/28 01:58:19;;;;;;;0.00;0.00;;;2.60;99.90;;;;;;5065974;28;20032;-52
2024/01/28 02:00:45;;;;;;;0.00;0.00;;;2.50;99.90;;;;;;5068826;28;20554;-53
2024/01/28 02:03:12;;;;;;;0.00;0.00;;;2.60;99.90;;;;;;5073087;28;20028;-54
2024/01/28 02:05:38;;;;;;;0.00;0.00;;;2.60;99.90;;;;;;5065800;28;20029;-54
2024/01/28 02:08:05;;;;;;;0.00;0.00;;;2.50;99.90;;;;;;5061611;28;20024;-54
2024/01/28 02:10:30;;;;;;;0.00;0.00;;;2.40;99.90;;;;;;5064759;28;20047;-52
2024/01/28 02:12:56;;;;;;;0.00;0.00;;;2.50;99.90;;;;;;5063798;28;20035;-52
2024/01/28 02:15:22;;;;;;;0.00;0.00;;;2.50;99.90;;;;;;5064990;28;20069;-57
2024/01/28 02:17:47;;;;;;;0.00;0.00;;;2.50;99.90;;;;;;5048078;28;20028;-57
2024/01/28 02:20:13;;;;;;;0.00;0.00;;;2.60;99.90;;;;;;5067507;28;20035;-56
2024/01/28 02:22:39;;;;;;;0.00;0.00;;;2.50;99.90;;;;;;5068558;28;20024;-56
2024/01/28 02:25:05;;;;;;;0.10;0.10;;;2.60;99.90;;;;;;5066322;28;20036;-56
2024/01/28 02:27:31;;;;;;;0.00;0.00;;;2.50;99.90;;;;;;5070338;28;20032;-56
2024/01/28 02:29:56;;;;;;;0.00;0.00;;;2.60;99.90;;;;;;5068023;28;20455;-56
2024/01/28 02:32:22;;;;;;;0.00;0.00;;;2.60;99.90;;;;;;5070565;28;20039;-57
2024/01/28 02:34:47;;;;;;;0.10;0.10;;;2.70;99.90;;;;;;5068369;28;20037;-55
2024/01/28 02:37:13;;;;;;;0.00;0.00;;;2.70;99.90;;;;;;5064561;28;20066;-55
2024/01/28 02:39:40;;;;;;;0.10;0.10;;;2.70;99.90;;;;;;5063671;28;20127;-56
2024/01/28 02:42:06;;;;;;;0.00;0.00;;;2.70;99.90;;;;;;5062021;28;20025;-57
2024/01/28 02:44:32;;;;;;;0.00;0.00;;;2.70;99.90;;;;;;5064720;28;20032;-57
2024/01/28 02:46:58;;;;;;;0.00;0.00;;;2.70;99.90;;;;;;5068038;28;20450;-56
2024/01/28 02:49:23;;;;;;;0.00;0.00;;;2.80;99.90;;;;;;5066505;28;20476;-57
2024/01/28 02:51:52;;;;;;;0.00;0.00;;;2.90;99.90;;;;;;5067883;28;20082;-58
2024/01/28 02:54:17;;;;;;;0.30;0.20;;;3.00;99.90;;;;;;5067310;28;20387;-57
2024/01/28 02:56:43;;;;;;;0.00;0.00;;;3.00;99.90;;;;;;5066183;28;20033;-56
2024/01/28 02:59:10;;;;;;;0.00;0.00;;;2.90;99.90;;;;;;5073777;28;20032;-57
2024/01/28 03:01:47;;;;;;;0.00;0.00;;;3.00;99.90;;;;;;5064482;28;20147;-56
2024/01/28 03:04:15;;;;;;;0.00;0.00;;;3.00;99.90;;;;;;5063613;28;20629;-56
2024/01/28 03:06:41;;;;;;;0.00;0.00;;;2.90;99.90;;;;;;5054550;28;20357;-58
2024/01/28 03:09:07;;;;;;;0.00;0.00;;;2.90;99.90;;;;;;5069343;28;20028;-57
2024/01/28 03:11:33;;;;;;;0.08;0.08;;;2.80;99.90;;;;;;5065244;28;20033;-56
2024/01/28 03:13:59;;;;;;;0.43;0.35;;;2.80;99.90;;;;;;5048271;28;20078;-57
2024/01/28 03:16:24;;;;;;;0.00;0.00;;;2.80;99.90;;;;;;5068679;28;20049;-55
2024/01/28 03:18:50;;;;;;;0.00;0.00;;;2.80;99.90;;;;;;5073856;28;20434;-54
2024/01/28 03:21:16;;;;;;;0.00;0.00;;;2.90;99.90;;;;;;5071189;28;20537;-54
2024/01/28 03:23:41;;;;;;;0.00;0.00;;;3.10;99.90;;;;;;5066332;28;20067;-55
2024/01/28 03:26:09;;;;;;;0.00;0.00;;;3.20;99.90;;;;;;5062823;28;20021;-57
2024/01/28 03:28:35;;;;;;;0.00;0.00;;;3.20;99.90;;;;;;5047684;28;20032;-57
2024/01/28 03:31:00;;;;;;;0.15;0.15;;;3.00;99.90;;;;;;5064655;28;20496;-56
2024/01/28 03:33:26;;;;;;;0.00;0.00;;;3.00;99.90;;;;;;5071555;28;20040;-57
2024/01/28 03:35:51;;;;;;;0.00;0.00;;;2.90;99.90;;;;;;5065398;28;20036;-56
2024/01/28 03:38:17;;;;;;;0.00;0.00;;;2.90;99.90;;;;;;5062926;28;20040;-57
2024/01/28 03:40:43;;;;;;;0.38;0.38;;;2.80;99.90;;;;;;5061765;28;20020;-56
2024/01/28 03:43:09;;;;;;;0.00;0.00;;;2.90;99.90;;;;;;5066631;28;20081;-57
2024/01/28 03:45:34;;;;;;;0.08;0.08;;;2.90;99.90;;;;;;5071995;28;20036;-57
2024/01/28 03:48:00;;;;;;;0.00;0.00;;;2.80;99.90;;;;;;5063198;28;20650;-57
2024/01/28 03:50:25;;;;;;;0.00;0.00;;;2.80;99.90;;;;;;5045418;28;20484;-57
2024/01/28 03:52:51;;;;;;;0.00;0.00;;;2.80;99.90;;;;;;5067235;28;20472;-57
2024/01/28 03:55:17;;;;;;;0.00;0.00;;;2.80;99.90;;;;;;5073106;28;20115;-57
2024/01/28 03:57:43;;;;;;;0.00;0.00;;;2.80;99.90;;;;;;5065590;28;20024;-57
2024/01/28 04:00:11;;;;;;;0.00;0.00;;;2.80;99.90;;;;;;5073483;28;20037;-58
2024/01/28 04:02:37;;;;;;;0.00;0.00;;;2.80;99.90;;;;;;5067446;28;20025;-57
2024/01/28 04:05:03;;;;;;;0.00;0.00;;;2.80;99.90;;;;;;5070092;28;20483;-57
2024/01/28 04:07:29;;;;;;;0.00;0.00;;;2.90;99.90;;;;;;5066206;28;20032;-54
2024/01/28 04:09:55;;;;;;;0.00;0.00;;;2.70;99.90;;;;;;5066992;28;20395;-55
2024/01/28 04:12:21;;;;;;;0.00;0.00;;;2.90;99.90;;;;;;5073080;28;20036;-56
2024/01/28 04:14:47;;;;;;;0.00;0.00;;;2.70;99.90;;;;;;5062699;28;20024;-57
2024/01/28 04:17:12;;;;;;;0.00;0.00;;;2.60;99.90;;;;;;5069084;28;20043;-56
2024/01/28 04:19:38;;;;;;;0.00;0.00;;;2.60;99.90;;;;;;5072486;28;20033;-56
2024/01/28 04:22:04;;;;;;;0.00;0.00;;;2.70;99.90;;;;;;5066831;28;20044;-56
2024/01/28 04:24:30;;;;;;;0.00;0.00;;;2.70;99.90;;;;;;5065995;28;20028;-54
2024/01/28 04:26:55;;;;;;;0.00;0.00;;;2.60;99.90;;;;;;5050942;28;20086;-54
2024/01/28 04:29:21;;;;;;;0.00;0.00;;;2.50;99.90;;;;;;5074865;28;20008;-55
2024/01/28 04:31:46;;;;;;;0.00;0.00;;;2.40;99.90;;;;;;5064596;28;20036;-54
2024/01/28 04:34:12;;;;;;;0.00;0.00;;;2.50;99.90;;;;;;5065276;28;20028;-55
2024/01/28 04:36:37;;;;;;;0.00;0.00;;;2.40;99.90;;;;;;5067407;28;20031;-53
2024/01/28 04:39:03;;;;;;;0.00;0.00;;;2.30;99.90;;;;;;5065421;28;20154;-54
2024/01/28 04:41:29;;;;;;;0.00;0.00;;;2.30;99.90;;;;;;5064510;28;20044;-52
2024/01/28 04:43:54;;;;;;;0.00;0.00;;;2.10;99.90;;;;;;5062322;28;20036;-53
2024/01/28 04:46:20;;;;;;;0.00;0.00;;;2.00;99.90;;;;;;5067825;28;20028;-57
2024/01/28 04:48:46;;;;;;;0.00;0.00;;;1.80;99.90;;;;;;5052494;28;20028;-57
2024/01/28 04:51:11;;;;;;;0.00;0.00;;;1.80;99.90;;;;;;5065345;28;20542;-56
2024/01/28 04:53:37;;;;;;;0.00;0.00;;;1.70;99.90;;;;;;5065400;28;20039;-57
2024/01/28 04:56:03;;;;;;;0.00;0.00;;;1.60;99.90;;;;;;5060661;28;20033;-57
2024/01/28 04:58:29;;;;;;;0.00;0.00;;;1.70;99.90;;;;;;5064275;28;20032;-57
2024/01/28 05:00:54;;;;;;;0.00;0.00;;;1.40;99.90;;;;;;5063554;28;20142;-56
2024/01/28 05:03:20;;;;;;;0.00;0.00;;;1.80;99.90;;;;;;5063505;28;20500;-55
2024/01/28 05:05:46;;;;;;;0.00;0.00;;;1.60;99.90;;;;;;5062110;28;20052;-57
2024/01/28 05:08:12;;;;;;;0.00;0.00;;;1.70;99.90;;;;;;5063377;28;20204;-57
2024/01/28 05:10:38;;;;;;;0.00;0.00;;;1.60;99.90;;;;;;5062121;28;20086;-57
2024/01/28 05:13:04;;;;;;;0.00;0.00;;;1.60;99.90;;;;;;5067033;28;20032;-58
2024/01/28 05:15:29;;;;;;;0.00;0.00;;;1.70;99.90;;;;;;5064216;28;20036;-56
2024/01/28 05:17:55;;;;;;;0.00;0.00;;;;;;;;;;5067620;28;20054;-57
2024/01/28 05:20:21;;;;;;;0.00;0.00;;;2.00;99.90;;;;;;5065288;28;20040;-58
2024/01/28 05:22:47;;;;;;;0.00;0.00;;;2.00;99.90;;;;;;5067732;28;20463;-57
2024/01/28 05:25:13;;;;;;;0.00;0.00;;;2.00;99.90;;;;;;5067659;28;20107;-56
2024/01/28 05:27:39;;;;;;;0.00;0.00;;;2.20;99.90;;;;;;5065168;28;20025;-56
2024/01/28 05:30:06;;;;;;;0.00;0.00;;;2.00;99.90;;;;;;5064219;28;20518;-56
2024/01/28 05:32:32;;;;;;;0.00;0.00;;;2.20;99.90;;;;;;5061139;28;20514;-57
2024/01/28 05:34:57;;;;;;;0.00;0.00;;;2.30;99.90;;;;;;5049515;28;20064;-57
2024/01/28 05:37:23;;;;;;;0.00;0.00;;;2.10;99.90;;;;;;5063905;28;20066;-56
2024/01/28 05:39:49;;;;;;;0.00;0.00;;;2.10;99.90;;;;;;5066990;28;20075;-56
2024/01/28 05:42:15;;;;;;;0.00;0.00;;;2.20;99.90;;;;;;5063777;28;20078;-56
2024/01/28 05:44:40;;;;;;;0.00;0.00;;;2.20;99.90;;;;;;5066182;28;20194;-55
2024/01/28 05:47:06;;;;;;;0.00;0.00;;;2.20;99.90;;;;;;5062937;28;20071;-57
2024/01/28 05:49:33;;;;;;;0.00;0.00;;;2.30;99.90;;;;;;5065108;28;20376;-57
2024/01/28 05:51:58;;;;;;;0.00;0.00;;;2.40;99.90;;;;;;5058129;28;20464;-57
2024/01/28 05:54:24;;;;;;;0.00;0.00;;;2.40;99.90;;;;;;5071947;28;20101;-57
2024/01/28 05:56:50;;;;;;;0.00;0.00;;;2.60;99.90;;;;;;5063967;28;20601;-57
2024/01/28 05:59:16;;;;;;;0.10;0.10;;;2.50;99.90;;;;;;5067856;28;20028;-57
2024/01/28 06:01:42;;;;;;;0.00;0.00;;;2.70;99.90;;;;;;5069021;28;20024;-58
2024/01/28 06:04:09;;;;;;;0.70;0.35;;;2.80;99.90;;;;;;5066253;28;20039;-56
2024/01/28 06:06:35;;;;;;;0.22;0.22;;;2.80;99.90;;;;;;5066587;28;20460;-57
2024/01/28 06:09:00;;;;;;;0.00;0.00;;;2.80;99.90;;;;;;5067675;28;20032;-57
2024/01/28 06:11:27;;;;;;;0.00;0.00;;;2.80;99.90;;;;;;5068729;28;20427;-57
2024/01/28 06:13:52;;;;;;;0.00;0.00;;;2.90;99.90;;;;;;5066775;28;20045;-57
2024/01/28 06:16:18;;;;;;;0.00;0.00;;;2.90;99.90;;;;;;5067498;28;20248;-57
2024/01/28 06:18:43;;;;;;;0.00;0.00;;;2.80;99.90;;;;;;5067311;28;20476;-55
2024/01/28 06:21:13;;;;;;;0.00;0.00;;;2.80;99.90;;;;;;5064714;28;20389;-58
2024/01/28 06:23:40;;;;;;;0.00;0.00;;;2.70;99.90;;;;;;5073270;28;20016;-58
2024/01/28 06:26:07;;;;;;;0.00;0.00;;;2.70;99.90;;;;;;5070259;28;20020;-56
2024/01/28 06:28:33;;;;;;;0.00;0.00;;;2.80;99.90;;;;;;5065647;28;20391;-56
2024/01/28 06:30:58;;;;;;;0.00;0.00;;;2.80;99.90;;;;;;5068515;28;20040;-56
2024/01/28 06:33:24;;;;;;;0.00;0.00;;;2.80;99.90;;;;;;5064951;28;20591;-58
2024/01/28 06:35:49;;;;;;;0.00;0.00;;;2.90;99.90;;;;;;5068606;28;20463;-58
2024/01/28 06:38:15;;;;;;;0.00;0.00;;;2.90;99.90;;;;;;5050834;28;20502;-58
2024/01/28 06:40:41;;;;;;;0.00;0.00;;;2.80;99.90;;;;;;5063247;28;20040;-58
2024/01/28 06:43:07;;;;;;;0.10;0.10;;;2.90;99.90;;;;;;5063698;28;20095;-56
2024/01/28 06:45:32;;;;;;;0.00;0.00;;;3.00;99.90;;;;;;5065200;28;20136;-54
2024/01/28 06:47:58;;;;;;;0.00;0.00;;;3.00;99.90;;;;;;5069936;28;20654;-57
2024/01/28 06:50:23;;;;;;;0.15;0.15;;;3.10;99.90;;;;;;5071865;28;20368;-57
2024/01/28 06:52:49;;;;;;;0.00;0.00;;;3.10;99.90;;;;;;5070979;28;20043;-56
2024/01/28 06:55:14;;;;;;;0.00;0.00;;;3.10;99.90;;;;;;5049022;28;20119;-55
2024/01/28 06:57:40;;;;;;;0.05;0.05;;;3.00;99.90;;;;;;5066961;28;20032;-58
2024/01/28 07:00:10;;;;;;;0.00;0.00;;;3.10;99.90;;;;;;5072085;28;20036;-57
2024/01/28 07:02:36;;;;;;;0.00;0.00;;;3.10;99.90;;;;;;5069030;28;21253;-57
2024/01/28 07:05:02;;;;;;;0.00;0.00;;;2.90;99.90;;;;;;5068987;28;20020;-57
2024/01/28 07:07:28;;;;;;;0.05;0.05;;;2.90;99.90;;;;;;5064869;28;20417;-57
2024/01/28 07:09:54;;;;;;;0.00;0.00;;;2.90;99.90;;;;;;5068320;28;20560;-57
2024/01/28 07:12:19;;;;;;;0.00;0.00;;;2.90;99.90;;;;;;5063821;28;20487;-56
2024/01/28 07:14:45;;;;;;;0.00;0.00;;;2.90;99.90;;;;;;5065971;28;20045;-57
2024/01/28 07:17:11;;;;;;;0.10;0.10;;;2.90;99.90;;;;;;5064526;28;20081;-57
2024/01/28 07:19:36;;;;;;;0.05;0.05;;;3.00;99.90;;;;;;5067071;28;20503;-58
2024/01/28 07:22:02;;;;;;;0.00;0.00;;;3.00;99.90;;;;;;5062990;28;20028;-56
2024/01/28 07:24:28;;;;;;;0.00;0.00;;;3.10;99.90;;;;;;5069506;28;20025;-58
2024/01/28 07:26:53;;;;;;;0.00;0.00;;;3.10;99.90;;;;;;5067167;28;20437;-57
2024/01/28 07:29:19;;;;;;;0.63;0.63;;;3.10;99.90;;;;;;5074431;28;20059;-57
2024/01/28 07:31:44;;;;;;;0.10;0.10;;;3.10;99.90;;;;;;5029366;28;20044;-55
2024/01/28 07:34:10;;;;;;;0.00;0.00;;;3.20;99.90;;;;;;5066353;28;20028;-56
2024/01/28 07:36:36;;;;;;;0.00;0.00;;;3.20;99.90;;;;;;5068144;28;20480;-57
2024/01/28 07:39:04;;;;;;;0.00;0.00;;;3.10;99.90;;;;;;5071168;28;20055;-55
2024/01/28 07:41:34;;;;;;;0.00;0.00;;;3.10;99.90;;;;;;5065527;28;20024;-55
2024/01/28 07:44:00;;;;;;;0.05;0.05;;;3.20;99.90;;;;;;5069478;28;20056;-57
2024/01/28 07:46:25;;;;;;;0.10;0.10;;;3.20;99.90;;;;;;5070509;28;20075;-56
2024/01/28 07:48:51;;;;;;;0.00;0.00;;;3.30;99.90;;;;;;5063965;28;20091;-56
2024/01/28 07:51:16;;;;;;;0.00;0.00;;;3.30;99.90;;;;;;5062379;28;20114;-58
2024/01/28 07:53:42;;;;;;;0.00;0.00;;;3.30;99.90;;;;;;5063988;28;20722;-56
2024/01/28 07:56:07;;;;;;;0.00;0.00;;;3.40;99.90;;;;;;5066723;28;20396;-53
2024/01/28 07:58:33;;;;;;;0.00;0.00;;;3.40;99.90;;;;;;5063687;28;20032;-53
2024/01/28 08:00:58;;;;;;;0.00;0.00;;;3.40;99.90;;;;;;5060279;28;20060;-56
2024/01/28 08:03:24;;;;;;;0.43;0.22;;;3.40;99.90;;;;;;5061747;28;20527;-54
2024/01/28 08:05:49;;;;;;;0.00;0.00;;;3.40;99.90;;;;;;5066691;28;20025;-53
2024/01/28 08:08:15;;;;;;;0.25;0.10;;;3.40;99.90;;;;;;5060158;28;20028;-53
2024/01/28 08:10:41;;;;;;;0.10;0.10;;;3.50;99.90;;;;;;5063712;28;20389;-54
2024/01/28 08:13:06;;;;;;;0.22;0.10;;;3.50;99.90;;;;;;5067665;28;20016;-54
2024/01/28 08:15:32;;;;;;;0.00;0.00;;;3.60;99.90;;;;;;5069107;28;20035;-58
2024/01/28 08:17:58;;;;;;;0.15;0.15;;;3.60;99.90;;;;;;5063871;28;20017;-56
2024/01/28 08:20:23;;;;;;;0.00;0.00;;;3.70;99.90;;;;;;5062921;28;20028;-57
2024/01/28 08:22:50;;;;;;;0.08;0.08;;;3.70;99.90;;;;;;5059665;28;20100;-56
2024/01/28 08:25:16;;;;;;;0.00;0.00;;;3.80;99.90;;;;;;5064182;28;20111;-55
2024/01/28 08:27:41;;;;;;;0.47;0.13;;;3.90;99.90;;;;;;5057355;28;20035;-52
2024/01/28 08:30:08;;;;;;;0.00;0.00;;;3.80;99.90;;;;;;5061847;28;20028;-54
2024/01/28 08:32:34;;;;;;;0.40;0.40;;;3.80;99.90;;;;;;5064922;28;20028;-54
2024/01/28 08:34:59;;;;;;;0.05;0.05;;;3.90;99.90;;;;;;5064189;28;20032;-54
2024/01/28 08:37:25;;;;;;;1.20;0.80;;;3.90;99.90;;;;;;5065311;28;20685;-55
2024/01/28 08:39:51;;;;;;;0.10;0.10;;;4.00;99.90;;;;;;5063384;28;20090;-54
2024/01/28 08:42:18;;;;;;;0.00;0.00;;;4.00;99.90;;;;;;5063525;28;20031;-53
2024/01/28 08:44:44;;;;;;;0.10;0.10;;;4.10;99.90;;;;;;5041558;28;20044;-54
2024/01/28 08:47:11;;;;;;;0.90;0.30;;;;;;;;;;5067970;28;20037;-54
2024/01/28 08:49:36;;;;;;;0.00;0.00;;;4.20;99.90;;;;;;5061136;28;20032;-56
2024/01/28 08:52:02;;;;;;;0.10;0.10;;;4.20;99.90;;;;;;5063971;28;20035;-56
2024/01/28 08:54:30;;;;;;;0.93;0.32;;;4.30;99.90;;;;;;5053981;28;20024;-56
2024/01/28 08:56:56;;;;;;;0.55;0.35;;;4.30;99.90;;;;;;5037138;28;20032;-55
2024/01/28 08:59:22;;;;;;;0.00;0.00;;;4.30;99.90;;;;;;5057558;28;20040;-56
2024/01/28 09:01:49;;;;;;;0.00;0.00;;;4.30;99.90;;;;;;5065583;28;20024;-56
2024/01/28 09:04:15;;;;;;;0.10;0.10;;;4.40;99.90;;;;;;5065174;28;20029;-55
2024/01/28 09:06:41;;;;;;;0.10;0.10;;;4.40;99.90;;;;;;5058572;28;20297;-55
2024/01/28 09:09:08;;;;;;;0.00;0.00;;;4.50;99.90;;;;;;5056693;28;20075;-55
2024/01/28 09:11:37;;;;;;;0.00;0.00;;;4.50;99.90;;;;;;5054192;28;20029;-55
2024/01/28 09:14:03;;;;;;;0.00;0.00;;;4.60;99.90;;;;;;5058006;28;20719;-54
2024/01/28 09:16:29;;;;;;;0.57;0.13;;;4.70;99.90;;;;;;5053066;28;20078;-55
2024/01/28 09:18:54;;;;;;;0.00;0.00;;;4.70;99.90;;;;;;5056487;28;20037;-56
2024/01/28 09:21:20;;;;;;;0.00;0.00;;;4.70;99.90;;;;;;5060662;28;20044;-57
2024/01/28 09:23:46;;;;;;;0.00;0.00;;;4.80;99.90;;;;;;5054301;28;20381;-56
2024/01/28 09:26:11;;;;;;;0.43;0.10;;;5.00;99.90;;;;;;5043620;28;20287;-55
2024/01/28 09:28:37;;;;;;;0.00;0.00;;;5.00;99.90;;;;;;5054871;28;20031;-57
2024/01/28 09:31:07;;;;;;;0.00;0.00;;;5.00;99.90;;;;;;5060301;28;20388;-56
2024/01/28 09:33:33;;;;;;;0.00;0.00;;;4.90;99.90;;;;;;5057808;28;20395;-56
2024/01/28 09:35:58;;;;;;;0.00;0.00;;;4.90;99.90;;;;;;5050620;28;20036;-57
2024/01/28 09:38:24;;;;;;;0.00;0.00;;;4.90;99.90;;;;;;5056715;28;20097;-59
2024/01/28 09:40:50;;;;;;;1.48;0.17;;;5.00;99.90;;;;;;5050797;28;20143;-57
2024/01/28 09:43:27;;;;;;;0.00;0.00;;;5.10;99.90;;;;;;5054788;28;20440;-57
2024/01/28 09:45:53;;;;;;;0.22;0.10;;;5.10;99.90;;;;;;5052884;28;20174;-59
2024/01/28 09:48:20;;;;;;;0.10;0.10;;;5.20;99.90;;;;;;5062291;28;20032;-57
2024/01/28 09:50:46;;;;;;;0.10;0.10;;;5.30;99.90;;;;;;5054507;28;20036;-58
2024/01/28 09:53:13;;;;;;;0.00;0.00;;;5.30;99.90;;;;;;5058851;28;20035;-59
2024/01/28 09:55:42;;;;;;;0.00;0.00;;;5.40;99.90;;;;;;5061785;28;20070;-58
2024/01/28 09:58:08;;;;;;;0.00;0.00;;;5.30;99.90;;;;;;5058098;28;20020;-59
2024/01/28 10:00:36;;;;;;;0.17;0.15;;;5.40;99.90;;;;;;5058091;28;20029;-56
2024/01/28 10:03:03;;;;;;;0.00;0.00;;;5.40;99.90;;;;;;5057898;28;20032;-56
2024/01/28 10:05:30;;;;;;;0.00;0.00;;;5.40;99.90;;;;;;5054492;28;20435;-56
2024/01/28 10:08:03;;;;;;;2.13;0.22;;;5.50;99.90;;;;;;5058376;28;20032;-55
2024/01/28 10:10:30;;;;;;;0.10;0.10;;;5.50;99.90;;;;;;5051238;28;20028;-57
2024/01/28 10:12:57;;;;;;;0.30;0.30;;;5.50;99.90;;;;;;5056473;28;20453;-55
2024/01/28 10:15:27;;;;;;;0.38;0.38;;;5.60;99.90;;;;;;5039054;28;20480;-54
2024/01/28 10:17:53;;;;;;;0.00;0.00;;;5.60;99.90;;;;;;5048656;28;20036;-54
2024/01/28 10:20:21;;;;;;;0.28;0.17;;;5.80;99.90;;;;;;5053827;28;20036;-55
2024/01/28 10:22:47;;;;;;;0.00;0.00;;;5.80;99.90;;;;;;5058530;28;20032;-55
2024/01/28 10:25:15;;;;;;;0.00;0.00;;;5.80;99.90;;;;;;5061261;28;20376;-57
2024/01/28 10:27:42;;;;;;;0.00;0.00;;;5.80;99.90;;;;;;5063017;28;20028;-58
2024/01/28 10:30:09;;;;;;;0.00;0.00;;;5.90;99.90;;;;;;5060672;28;20045;-58
2024/01/28 10:32:34;;;;;;;0.00;0.00;;;6.00;99.90;;;;;;5062691;28;20111;-57
2024/01/28 10:35:00;;;;;;;0.00;0.00;;;6.00;99.90;;;;;;5064367;28;20115;-57
2024/01/28 10:37:31;;;;;;;0.10;0.00;;;6.10;99.90;;;;;;5069900;28;20025;-58
2024/01/28 10:39:58;;;;;;;0.00;0.00;;;6.10;99.90;;;;;;5058291;28;20044;-59
2024/01/28 10:42:26;;;;;;;0.10;0.10;;;6.10;99.90;;;;;;5063240;28;20020;-58
2024/01/28 10:44:54;;;;;;;0.00;0.00;;;6.20;99.90;;;;;;5057813;28;20044;-58
2024/01/28 10:47:24;;;;;;;0.30;0.30;;;6.20;99.90;;;;;;5062697;28;20201;-57
2024/01/28 10:49:58;;;;;;;0.00;0.00;;;6.20;99.90;;;;;;5060328;28;20016;-58
2024/01/28 10:52:25;;;;;;;0.00;0.00;;;6.30;99.90;;;;;;5054541;28;20036;-58
2024/01/28 10:54:51;;;;;;;0.30;0.28;;;6.30;99.90;;;;;;5061421;28;20025;-58
2024/01/28 10:57:23;;;;;;;0.52;0.20;;;6.30;99.90;;;;;;5057166;28;20496;-57
2024/01/28 10:59:51;;;;;;;0.00;0.00;;;6.30;99.90;;;;;;5059487;28;20044;-58
2024/01/28 11:02:19;;;;;;;0.08;0.08;;;6.40;99.90;;;;;;5062449;28;20095;-57
2024/01/28 11:04:46;;;;;;;0.00;0.00;;;6.40;99.90;;;;;;5060376;28;20044;-58
2024/01/28 11:07:12;;;;;;;0.10;0.10;;;6.40;99.90;;;;;;5059542;28;20039;-57
2024/01/28 11:09:38;;;;;;;0.32;0.28;;;6.40;99.90;;;;;;5060431;28;20537;-58
2024/01/28 11:12:04;;;;;;;0.10;0.10;;;6.50;99.90;;;;;;5062104;28;20032;-56
2024/01/28 11:14:30;;;;;;;0.93;0.57;;;6.50;99.90;;;;;;5062619;28;20039;-57
2024/01/28 11:16:56;;;;;;;0.10;0.10;;;6.60;99.90;;;;;;5064719;28;20053;-58
2024/01/28 11:19:27;;;;;;;0.00;0.00;;;6.60;99.90;;;;;;5059950;28;20036;-57
2024/01/28 11:21:53;;;;;;;0.00;0.00;;;6.50;99.90;;;;;;5039801;28;20028;-53
2024/01/28 11:24:20;;;;;;;0.75;0.38;;;6.60;99.90;;;;;;5060337;28;20036;-56
2024/01/28 11:26:47;;;;;;;0.47;0.25;;;6.80;99.90;;;;;;5059234;28;20028;-54
2024/01/28 11:29:15;;;;;;;0.00;0.00;;;6.80;99.90;;;;;;5060744;28;20055;-54
2024/01/28 11:31:42;;;;;;;0.00;0.00;;;6.70;99.90;;;;;;5060222;28;20143;-55
2024/01/28 11:34:19;;;;;;;0.20;0.20;;;6.90;99.90;;;;;;5059682;28;20036;-56
2024/01/28 11:36:46;;;;;;;0.43;0.13;;;6.90;99.90;;;;;;5039180;28;20048;-57
2024/01/28 11:39:13;;;;;;;0.00;0.00;;;7.00;99.90;;;;;;5060850;28;20075;-58
2024/01/28 11:41:41;;;;;;;0.00;0.00;;;7.00;99.90;;;;;;5057588;28;20036;-57
2024/01/28 11:44:08;;;;;;;0.65;0.17;;;7.00;99.90;;;;;;5063058;28;20638;-58
2024/01/28 11:46:35;;;;;;;0.00;0.00;;;7.00;99.90;;;;;;5063049;28;20846;-55
2024/01/28 11:49:01;;;;;;;0.00;0.00;;;7.10;99.90;;;;;;5061384;28;20111;-53
2024/01/28 11:51:31;;;;;;;0.10;0.10;;;7.10;99.90;;;;;;5059969;28;20522;-57
2024/01/28 11:54:00;;;;;;;0.57;0.10;;;7.10;99.90;;;;;;5063039;28;20115;-56
2024/01/28 11:56:30;;;;;;;0.00;0.00;;;7.20;99.90;;;;;;5060677;28;20078;-55
2024/01/28 11:58:56;;;;;;;0.00;0.00;;;7.30;99.90;;;;;;5059133;28;21060;-56
2024/01/28 12:01:23;;;;;;;0.00;0.00;;;7.40;99.90;;;;;;5061241;28;20040;-55
2024/01/28 12:03:50;;;;;;;1.45;0.68;;;7.50;99.90;;;;;;5057005;28;20491;-57
2024/01/28 12:06:16;;;;;;;0.10;0.10;;;7.50;99.90;;;;;;5059196;28;20115;-57
2024/01/28 12:08:43;;;;;;;0.22;0.13;;;7.60;99.90;;;;;;5058839;28;20423;-57
2024/01/28 12:11:13;;;;;;;0.00;0.00;;;7.60;99.90;;;;;;5057517;28;20028;-56
2024/01/28 12:13:40;;;;;;;0.13;0.13;;;7.50;99.90;;;;;;5055829;28;20044;-58
2024/01/28 12:16:06;;;;;;;0.00;0.00;;;7.30;99.90;;;;;;5061115;28;21231;-58
2024/01/28 12:18:32;;;;;;;0.08;0.00;;;7.60;99.90;;;;;;5057819;28;20519;-58
2024/01/28 12:20:58;;;;;;;0.30;0.17;;;7.80;99.90;;;;;;5064284;28;20535;-58
2024/01/28 12:23:23;;;;;;;0.30;0.30;;;7.80;99.90;;;;;;5056710;28;20031;-57
2024/01/28 12:25:49;;;;;;;0.00;0.00;;;7.20;99.90;;;;;;5059626;28;20040;-55
2024/01/28 12:28:15;;;;;;;0.00;0.00;;;8.00;99.90;;;;;;5063091;28;20036;-56
2024/01/28 12:30:41;;;;;;;0.17;0.13;;;7.80;99.90;;;;;;5057591;28;20053;-56
2024/01/28 12:33:07;;;;;;;0.00;0.00;;;7.90;99.90;;;;;;5059139;28;20116;-56
2024/01/28 12:35:33;;;;;;;0.00;0.00;;;8.20;99.90;;;;;;5058164;28;20028;-55
2024/01/28 12:37:58;;;;;;;0.00;0.00;;;7.90;99.90;;;;;;5038726;28;20031;-54
2024/01/28 12:40:24;;;;;;;0.00;0.00;;;8.10;99.90;;;;;;5057989;28;20150;-55
2024/01/28 12:42:49;;;;;;;0.03;0.00;;;8.10;99.90;;;;;;5055187;28;20497;-57
2024/01/28 12:45:15;;;;;;;0.00;0.00;;;8.30;99.90;;;;;;5061344;28;20657;-54
2024/01/28 12:47:41;;;;;;;0.00;0.00;;;7.80;99.90;;;;;;5061049;28;20040;-55
2024/01/28 12:50:08;;;;;;;0.00;0.00;;;8.10;99.90;;;;;;5062327;28;20042;-57
2024/01/28 12:52:34;;;;;;;1.30;1.20;;;8.20;99.90;;;;;;5059036;28;20017;-55